createdAt,value
2018-04-12T00:01:36.518Z,84.65
2018-04-12T00:04:04.838Z,84.75
2018-04-12T00:06:33.170Z,84.92
2018-04-12T00:09:01.520Z,85.04
2018-04-12T00:11:30.612Z,84.92
2018-04-12T00:13:58.994Z,85.17
2018-04-12T00:16:28.093Z,85.12
2018-04-12T00:18:57.221Z,85.03
2018-04-12T00:21:26.483Z,85.06
2018-04-12T00:23:55.572Z,85.07
2018-04-12T00:26:23.939Z,85.24
2018-04-12T00:28:52.268Z,85.12
2018-04-12T00:31:20.656Z,85.05
2018-04-12T00:33:48.987Z,84.86
2018-04-12T00:36:18.083Z,84.83
2018-04-12T00:38:47.241Z,84.97
2018-04-12T00:41:16.336Z,85.25
2018-04-12T00:43:44.686Z,84.95
2018-04-12T00:46:13.021Z,84.76
2018-04-12T00:48:41.367Z,84.78
2018-04-12T00:51:09.708Z,84.78
2018-04-12T00:53:55.732Z,84.91
2018-04-12T00:56:24.035Z,84.89
2018-04-12T00:58:52.448Z,84.96
2018-04-12T01:01:20.833Z,85.00
2018-04-12T01:03:49.173Z,85.16
2018-04-12T01:06:17.524Z,85.24
2018-04-12T01:08:45.888Z,85.25
2018-04-12T01:11:15.254Z,85.13
2018-04-12T01:13:44.362Z,85.50
2018-04-12T01:16:13.114Z,85.55
2018-04-12T01:18:41.492Z,85.75
2018-04-12T01:21:09.871Z,85.72
2018-04-12T01:23:38.238Z,85.96
2018-04-12T01:26:06.596Z,85.82
2018-04-12T01:28:34.936Z,85.76
2018-04-12T01:31:03.307Z,85.87
2018-04-12T01:33:32.043Z,85.80
2018-04-12T01:36:01.174Z,85.71
2018-04-12T01:38:29.554Z,85.91
2018-04-12T01:40:58.675Z,86.06
2018-04-12T01:43:27.013Z,86.08
2018-04-12T01:45:55.331Z,86.18
2018-04-12T01:48:23.699Z,86.29
2018-04-12T01:50:52.785Z,86.37
2018-04-12T01:53:21.893Z,86.47
2018-04-12T01:55:50.253Z,86.49
2018-04-12T01:58:19.345Z,86.57
2018-04-12T02:00:48.468Z,86.68
2018-04-12T02:03:17.219Z,86.84
2018-04-12T02:05:47.084Z,86.90
2018-04-12T02:08:15.445Z,86.99
2018-04-12T02:10:43.769Z,87.08
2018-04-12T02:13:12.133Z,87.18
2018-04-12T02:15:40.461Z,87.33
2018-04-12T02:18:09.588Z,87.33
2018-04-12T02:20:37.904Z,87.40
2018-04-12T02:23:07.030Z,87.81
2018-04-12T02:25:36.104Z,87.74
2018-04-12T02:28:04.485Z,87.81
2018-04-12T02:30:32.839Z,88.00
2018-04-12T02:33:01.168Z,87.95
2018-04-12T02:35:30.651Z,87.95
2018-04-12T02:37:59.720Z,88.05
2018-04-12T02:40:28.026Z,88.21
2018-04-12T02:42:57.161Z,88.27
2018-04-12T02:45:25.508Z,88.22
2018-04-12T02:47:53.849Z,88.27
2018-04-12T02:50:22.181Z,88.31
2018-04-12T02:52:51.699Z,88.34
2018-04-12T02:55:19.998Z,88.64
2018-04-12T02:57:49.128Z,88.61
2018-04-12T03:00:18.216Z,88.70
2018-04-12T03:02:47.335Z,88.73
2018-04-12T03:05:16.090Z,88.81
2018-04-12T03:07:44.821Z,89.03
2018-04-12T03:10:13.162Z,89.04
2018-04-12T03:12:41.533Z,88.99
2018-04-12T03:15:09.853Z,89.01
2018-04-12T03:17:38.169Z,89.14
2018-04-12T03:20:06.549Z,89.27
2018-04-12T03:22:34.875Z,89.50
2018-04-12T03:25:03.218Z,89.52
2018-04-12T03:27:31.539Z,89.55
2018-04-12T03:29:59.894Z,89.62
2018-04-12T03:32:29.020Z,89.65
2018-04-12T03:34:57.319Z,89.66
2018-04-12T03:37:26.069Z,89.65
2018-04-12T03:39:54.449Z,89.83
2018-04-12T03:42:22.804Z,89.99
2018-04-12T03:44:51.913Z,90.22
2018-04-12T03:47:21.004Z,90.25
2018-04-12T03:49:50.119Z,90.25
2018-04-12T03:52:18.425Z,90.25
2018-04-12T03:54:46.788Z,90.34
2018-04-12T03:57:15.441Z,90.38
2018-04-12T03:59:44.563Z,90.36
2018-04-12T04:02:12.880Z,90.35
2018-04-12T04:04:41.431Z,90.42
2018-04-12T04:07:09.790Z,90.45
2018-04-12T04:09:38.104Z,90.52
2018-04-12T04:12:06.442Z,90.49
2018-04-12T04:14:48.318Z,90.53
2018-04-12T04:20:44.582Z,90.43
2018-04-12T04:23:13.704Z,90.39
2018-04-12T04:25:42.006Z,90.38
2018-04-12T04:28:10.373Z,90.50
2018-04-12T04:30:38.738Z,90.44
2018-04-12T04:33:07.799Z,90.33
2018-04-12T04:35:37.565Z,90.23
2018-04-12T04:38:05.912Z,90.13
2018-04-12T04:40:34.242Z,90.01
2018-04-12T04:43:02.604Z,89.87
2018-04-12T04:45:31.355Z,89.77
2018-04-12T04:48:00.855Z,89.62
2018-04-12T04:50:30.348Z,89.43
2018-04-12T04:52:58.707Z,89.30
2018-04-12T04:55:27.838Z,89.13
2018-04-12T04:57:56.191Z,88.94
2018-04-12T05:00:25.332Z,88.88
2018-04-12T05:02:53.652Z,88.53
2018-04-12T05:05:22.736Z,88.21
2018-04-12T05:07:51.884Z,87.89
2018-04-12T05:10:20.213Z,87.50
2018-04-12T05:12:49.336Z,87.18
2018-04-12T05:15:17.660Z,86.82
2018-04-12T05:17:46.003Z,86.44
2018-04-12T05:20:14.380Z,86.03
2018-04-12T05:22:42.756Z,85.67
2018-04-12T05:25:11.134Z,85.41
2018-04-12T05:27:39.491Z,84.84
2018-04-12T05:30:08.583Z,84.54
2018-04-12T05:32:37.704Z,84.19
2018-04-12T05:35:06.062Z,83.98
2018-04-12T05:37:34.408Z,83.47
2018-04-12T05:40:02.737Z,83.05
2018-04-12T05:42:32.110Z,82.58
2018-04-12T05:45:01.797Z,82.31
2018-04-12T05:47:30.942Z,81.90
2018-04-12T05:49:59.258Z,81.54
2018-04-12T05:52:27.605Z,81.12
2018-04-12T05:54:55.959Z,81.16
2018-04-12T05:57:24.310Z,80.79
2018-04-12T05:59:53.437Z,80.29
2018-04-12T06:02:21.803Z,79.42
2018-04-12T06:04:50.874Z,78.60
2018-04-12T06:07:19.273Z,77.57
2018-04-12T06:09:47.571Z,76.76
2018-04-12T06:12:15.928Z,76.01
2018-04-12T06:14:45.047Z,75.35
2018-04-12T06:17:13.396Z,74.92
2018-04-12T06:19:42.516Z,74.55
2018-04-12T06:22:10.884Z,73.08
2018-04-12T06:24:39.227Z,71.74
2018-04-12T06:27:07.554Z,70.21
2018-04-12T06:29:35.905Z,69.68
2018-04-12T06:32:05.047Z,70.51
2018-04-12T06:34:33.369Z,70.34
2018-04-12T06:37:02.735Z,69.33
2018-04-12T06:39:31.111Z,68.30
2018-04-12T06:41:59.439Z,68.44
2018-04-12T06:44:28.572Z,67.29
2018-04-12T06:46:57.357Z,67.25
2018-04-12T06:49:25.682Z,66.63
2018-04-12T06:51:54.826Z,66.44
2018-04-12T06:54:23.150Z,66.32
2018-04-12T06:56:51.574Z,65.63
2018-04-12T06:59:20.016Z,65.48
2018-04-12T07:01:49.100Z,64.78
2018-04-12T07:04:17.436Z,64.46
2018-04-12T07:06:45.743Z,63.52
2018-04-12T07:09:14.214Z,62.46
2018-04-12T07:11:42.559Z,62.42
2018-04-12T07:14:10.920Z,61.13
2018-04-12T07:16:39.236Z,61.47
2018-04-12T07:19:07.596Z,61.51
2018-04-12T07:21:35.907Z,61.34
2018-04-12T07:24:04.227Z,60.68
2018-04-12T07:26:33.728Z,59.94
2018-04-12T07:29:02.821Z,58.47
2018-04-12T07:31:31.953Z,58.28
2018-04-12T07:34:00.293Z,57.79
2018-04-12T07:36:29.416Z,57.80
2018-04-12T07:38:57.743Z,56.18
2018-04-12T07:41:27.137Z,54.53
2018-04-12T07:43:55.507Z,54.64
2018-04-12T07:46:23.987Z,53.82
2018-04-12T07:48:52.318Z,52.94
2018-04-12T07:51:21.177Z,52.78
2018-04-12T07:53:50.296Z,52.61
2018-04-12T07:56:19.064Z,52.34
2018-04-12T07:58:49.928Z,50.65
2018-04-12T08:01:18.259Z,49.75
2018-04-12T08:03:46.565Z,48.31
2018-04-12T08:06:15.704Z,49.30
2018-04-12T08:08:44.031Z,48.90
2018-04-12T08:11:13.245Z,47.24
2018-04-12T08:13:41.995Z,46.48
2018-04-12T08:16:10.333Z,45.83
2018-04-12T08:18:38.676Z,44.55
2018-04-12T08:21:07.025Z,43.35
2018-04-12T08:23:35.414Z,43.08
2018-04-12T08:26:03.741Z,43.81
2018-04-12T08:28:32.101Z,43.03
2018-04-12T08:31:00.428Z,42.38
2018-04-12T08:33:28.775Z,42.51
2018-04-12T08:35:57.108Z,42.81
2018-04-12T08:38:26.249Z,41.65
2018-04-12T08:40:54.597Z,41.00
2018-04-12T08:43:23.725Z,41.06
2018-04-12T08:45:52.082Z,40.67
2018-04-12T08:48:20.391Z,40.26
2018-04-12T08:50:48.761Z,40.19
2018-04-12T08:53:17.130Z,40.27
2018-04-12T08:55:45.476Z,41.28
2018-04-12T08:58:13.816Z,40.57
2018-04-12T09:00:42.150Z,39.94
2018-04-12T09:03:10.530Z,39.87
2018-04-12T09:05:38.899Z,39.67
2018-04-12T09:08:07.277Z,39.22
2018-04-12T09:10:35.594Z,39.07
2018-04-12T09:13:03.958Z,39.65
2018-04-12T09:15:32.285Z,39.88
2018-04-12T09:18:01.426Z,38.75
2018-04-12T09:20:30.544Z,38.61
2018-04-12T09:22:58.890Z,38.14
2018-04-12T09:25:28.004Z,36.84
2018-04-12T09:27:56.329Z,36.84
2018-04-12T09:30:25.409Z,37.02
2018-04-12T09:32:53.756Z,37.05
2018-04-12T09:35:22.095Z,36.29
2018-04-12T09:37:50.426Z,36.66
2018-04-12T09:40:18.733Z,36.42
2018-04-12T09:42:47.854Z,35.76
2018-04-12T09:45:16.200Z,36.61
2018-04-12T09:47:45.318Z,35.54
2018-04-12T09:50:13.673Z,34.92
2018-04-12T09:52:41.974Z,33.84
2018-04-12T09:55:10.314Z,34.24
2018-04-12T09:57:38.658Z,34.51
2018-04-12T10:00:07.002Z,34.61
2018-04-12T10:02:40.905Z,35.10
2018-04-12T10:05:10.010Z,35.25
2018-04-12T10:07:43.962Z,35.20
2018-04-12T10:10:12.301Z,34.88
2018-04-12T10:12:40.678Z,34.95
2018-04-12T10:15:09.046Z,34.59
2018-04-12T10:17:37.433Z,33.75
2018-04-12T10:20:05.752Z,33.85
2018-04-12T10:22:34.878Z,34.00
2018-04-12T10:25:03.992Z,33.53
2018-04-12T10:27:33.085Z,32.32
2018-04-12T10:30:01.464Z,32.32
2018-04-12T10:32:29.809Z,32.12
2018-04-12T10:34:58.118Z,32.42
2018-04-12T10:37:27.256Z,33.03
2018-04-12T10:39:55.604Z,32.65
2018-04-12T10:42:23.916Z,31.95
2018-04-12T10:44:52.287Z,32.12
2018-04-12T10:47:20.599Z,31.62
2018-04-12T10:49:48.969Z,32.20
2018-04-12T10:52:17.370Z,31.46
2018-04-12T10:54:45.766Z,31.41
2018-04-12T10:57:14.121Z,31.02
2018-04-12T10:59:43.239Z,31.60
2018-04-12T11:02:11.549Z,32.09
2018-04-12T11:04:39.916Z,31.81
2018-04-12T11:07:08.229Z,31.55
2018-04-12T11:09:36.576Z,31.90
2018-04-12T11:12:04.957Z,31.29
2018-04-12T11:14:33.287Z,30.88
2018-04-12T11:17:02.413Z,31.63
2018-04-12T11:19:30.776Z,31.80
2018-04-12T11:21:59.623Z,32.38
2018-04-12T11:24:27.942Z,31.60
2018-04-12T11:26:56.315Z,31.73
2018-04-12T11:29:25.412Z,32.20
2018-04-12T11:31:53.773Z,32.31
2018-04-12T11:34:22.892Z,32.34
2018-04-12T11:36:51.234Z,32.37
2018-04-12T11:39:19.594Z,32.32
2018-04-12T11:41:47.960Z,32.50
2018-04-12T11:44:16.302Z,32.73
2018-04-12T11:46:44.728Z,32.18
2018-04-12T11:49:13.022Z,31.93
2018-04-12T11:51:41.374Z,32.18
2018-04-12T11:54:09.717Z,31.84
2018-04-12T11:56:38.068Z,32.50
2018-04-12T11:59:07.143Z,32.55
2018-04-12T12:01:35.517Z,32.67
2018-04-12T12:04:03.885Z,33.11
2018-04-12T12:06:32.260Z,32.81
2018-04-12T12:09:00.580Z,33.07
2018-04-12T12:11:29.692Z,33.27
2018-04-12T12:13:58.014Z,33.52
2018-04-12T12:16:26.391Z,33.19
2018-04-12T12:18:54.718Z,33.02
2018-04-12T12:21:23.074Z,33.52
2018-04-12T12:23:52.198Z,33.50
2018-04-12T12:26:21.298Z,33.17
2018-04-12T12:28:49.629Z,33.51
2018-04-12T12:31:17.987Z,33.21
2018-04-12T12:33:46.292Z,33.74
2018-04-12T12:36:14.638Z,34.19
2018-04-12T12:38:42.972Z,33.67
2018-04-12T12:41:11.315Z,33.71
2018-04-12T12:43:39.636Z,33.42
2018-04-12T12:46:08.001Z,33.52
2018-04-12T12:48:36.325Z,33.32
2018-04-12T12:51:04.703Z,33.50
2018-04-12T12:53:33.018Z,33.31
2018-04-12T12:56:02.206Z,33.35
2018-04-12T12:58:30.508Z,33.33
2018-04-12T13:00:58.831Z,32.96
2018-04-12T13:03:27.213Z,32.50
2018-04-12T13:05:55.557Z,31.76
2018-04-12T13:08:23.925Z,31.92
2018-04-12T13:10:52.239Z,31.41
2018-04-12T13:13:20.621Z,31.26
2018-04-12T13:15:48.941Z,31.37
2018-04-12T13:18:18.070Z,31.11
2018-04-12T13:20:46.412Z,31.46
2018-04-12T13:23:15.496Z,31.65
2018-04-12T13:25:43.965Z,31.74
2018-04-12T13:28:12.286Z,32.07
2018-04-12T13:30:40.604Z,31.97
2018-04-12T13:33:09.038Z,32.12
2018-04-12T13:35:37.324Z,32.03
2018-04-12T13:38:05.683Z,31.86
2018-04-12T13:40:34.829Z,31.62
2018-04-12T13:43:03.291Z,31.57
2018-04-12T13:45:31.754Z,31.52
2018-04-12T13:48:00.282Z,31.56
2018-04-12T13:50:28.784Z,31.37
2018-04-12T13:52:57.184Z,31.48
2018-04-12T13:55:25.555Z,30.98
2018-04-12T13:57:54.706Z,31.14
2018-04-12T14:00:23.204Z,30.98
2018-04-12T14:02:51.546Z,30.91
2018-04-12T14:05:19.924Z,30.51
2018-04-12T14:07:48.267Z,31.08
2018-04-12T14:10:17.504Z,30.56
2018-04-12T14:12:45.814Z,30.09
2018-04-12T14:15:14.369Z,30.16
2018-04-12T14:17:42.708Z,29.69
2018-04-12T14:20:11.881Z,30.13
2018-04-12T14:22:41.005Z,31.87
2018-04-12T14:25:09.710Z,33.10
2018-04-12T14:27:38.080Z,32.00
2018-04-12T14:30:06.389Z,32.75
2018-04-12T14:32:35.657Z,32.60
2018-04-12T14:35:04.011Z,31.72
2018-04-12T14:37:33.100Z,30.96
2018-04-12T14:40:02.588Z,31.11
2018-04-12T14:42:30.955Z,30.90
2018-04-12T14:44:59.274Z,30.81
2018-04-12T14:47:27.682Z,30.69
2018-04-12T14:49:55.998Z,30.43
2018-04-12T14:52:24.354Z,30.52
2018-04-12T14:54:52.739Z,30.92
2018-04-12T14:57:22.106Z,30.84
2018-04-12T14:59:50.409Z,31.01
2018-04-12T15:02:18.785Z,31.32
2018-04-12T15:04:47.081Z,31.63
2018-04-12T15:07:15.413Z,32.86
2018-04-12T15:09:43.784Z,33.31
2018-04-12T15:12:12.118Z,34.45
2018-04-12T15:14:41.277Z,34.72
2018-04-12T15:17:09.604Z,33.33
2018-04-12T15:19:38.684Z,34.27
2018-04-12T15:22:07.084Z,34.02
2018-04-12T15:24:36.174Z,31.69
2018-04-12T15:27:05.321Z,31.50
2018-04-12T15:29:34.476Z,32.60
2018-04-12T15:32:03.011Z,31.67
2018-04-12T15:34:31.397Z,33.14
2018-04-12T15:36:59.745Z,32.74
2018-04-12T15:39:28.122Z,32.28
2018-04-12T15:41:56.647Z,32.39
2018-04-12T15:44:25.431Z,32.57
2018-04-12T15:46:53.809Z,32.76
2018-04-12T15:49:22.215Z,32.45
2018-04-12T15:51:51.009Z,32.58
2018-04-12T15:54:19.409Z,32.75
2018-04-12T15:56:48.931Z,33.04
2018-04-12T15:59:18.126Z,33.11
2018-04-12T16:01:46.496Z,33.13
2018-04-12T16:04:14.829Z,33.03
2018-04-12T16:06:43.356Z,33.09
2018-04-12T16:09:11.715Z,33.09
2018-04-12T16:11:40.049Z,33.28
2018-04-12T16:14:09.220Z,32.90
2018-04-12T16:16:37.567Z,33.36
2018-04-12T16:19:05.917Z,33.79
2018-04-12T16:21:35.060Z,33.88
2018-04-12T16:24:03.877Z,34.56
2018-04-12T16:26:32.653Z,35.07
2018-04-12T16:29:01.076Z,35.22
2018-04-12T16:31:30.948Z,35.07
2018-04-12T16:33:59.754Z,35.24
2018-04-12T16:36:28.169Z,34.66
2018-04-12T16:38:56.585Z,34.96
2018-04-12T16:41:25.077Z,35.04
2018-04-12T16:43:53.504Z,34.96
2018-04-12T16:46:21.949Z,35.14
2018-04-12T16:48:50.304Z,35.42
2018-04-12T16:51:19.613Z,35.43
2018-04-12T16:53:48.744Z,35.67
2018-04-12T16:56:17.925Z,36.16
2018-04-12T16:58:46.695Z,36.35
2018-04-12T17:01:15.048Z,36.66
2018-04-12T17:03:43.505Z,36.93
2018-04-12T17:06:12.257Z,37.09
2018-04-12T17:08:41.600Z,37.05
2018-04-12T17:11:10.125Z,37.31
2018-04-12T17:13:38.485Z,37.52
2018-04-12T17:16:07.144Z,37.54
2018-04-12T17:18:37.549Z,37.89
2018-04-12T17:21:05.933Z,38.27
2018-04-12T17:23:35.036Z,38.51
2018-04-12T17:26:03.381Z,39.05
2018-04-12T17:28:31.746Z,38.95
2018-04-12T17:31:00.577Z,39.35
2018-04-12T17:33:28.951Z,39.35
2018-04-12T17:35:58.115Z,39.16
2018-04-12T17:38:26.500Z,39.10
2018-04-12T17:40:54.870Z,39.25
2018-04-12T17:43:23.948Z,39.50
2018-04-12T17:45:52.326Z,39.03
2018-04-12T17:48:20.662Z,39.28
2018-04-12T17:50:49.043Z,40.25
2018-04-12T17:53:17.348Z,40.54
2018-04-12T17:55:45.728Z,40.52
2018-04-12T17:58:14.029Z,40.31
2018-04-12T18:00:42.372Z,40.86
2018-04-12T18:03:10.765Z,40.62
2018-04-12T18:05:39.078Z,40.56
2018-04-12T18:08:07.497Z,40.46
2018-04-12T18:10:35.831Z,40.93
2018-04-12T18:13:04.193Z,41.32
2018-04-12T18:15:33.342Z,41.53
2018-04-12T18:18:01.675Z,41.95
2018-04-12T18:20:30.151Z,42.33
2018-04-12T18:22:58.611Z,41.97
2018-04-12T18:25:26.946Z,42.40
2018-04-12T18:27:55.362Z,42.65
2018-04-12T18:30:24.415Z,42.75
2018-04-12T18:32:53.595Z,43.27
2018-04-12T18:35:21.956Z,43.64
2018-04-12T18:37:50.313Z,44.41
2018-04-12T18:40:18.669Z,45.50
2018-04-12T18:42:47.046Z,46.96
2018-04-12T18:45:15.393Z,48.09
2018-04-12T18:47:44.615Z,48.60
2018-04-12T18:50:12.978Z,49.62
2018-04-12T18:52:42.231Z,50.11
2018-04-12T18:55:10.556Z,51.13
2018-04-12T18:57:39.081Z,51.42
2018-04-12T19:00:08.923Z,51.96
2018-04-12T19:02:37.303Z,52.34
2018-04-12T19:05:05.732Z,52.42
2018-04-12T19:07:34.830Z,52.90
2018-04-12T19:10:04.121Z,53.07
2018-04-12T19:12:33.943Z,53.58
2018-04-12T19:15:02.297Z,53.90
2018-04-12T19:17:30.653Z,54.20
2018-04-12T19:20:01.051Z,54.35
2018-04-12T19:22:29.370Z,54.34
2018-04-12T19:24:58.515Z,54.46
2018-04-12T19:27:26.953Z,55.08
2018-04-12T19:29:55.328Z,55.10
2018-04-12T19:32:23.664Z,55.09
2018-04-12T19:34:52.841Z,55.04
2018-04-12T19:37:21.229Z,55.27
2018-04-12T19:39:49.590Z,55.57
2018-04-12T19:42:17.960Z,55.72
2018-04-12T19:44:46.324Z,55.46
2018-04-12T19:47:15.693Z,55.50
2018-04-12T19:49:44.083Z,55.77
2018-04-12T19:52:13.181Z,56.14
2018-04-12T19:54:41.544Z,55.46
2018-04-12T19:57:09.897Z,55.47
2018-04-12T19:59:38.324Z,55.81
2018-04-12T20:02:06.644Z,56.43
2018-04-12T20:04:35.057Z,56.38
2018-04-12T20:07:03.426Z,56.32
2018-04-12T20:09:31.768Z,55.86
2018-04-12T20:12:00.146Z,55.83
2018-04-12T20:14:28.520Z,56.01
2018-04-12T20:16:56.837Z,56.39
2018-04-12T20:19:25.583Z,56.18
2018-04-12T20:21:53.909Z,56.02
2018-04-12T20:24:23.599Z,56.19
2018-04-12T20:26:51.972Z,56.92
2018-04-12T20:29:20.311Z,56.19
2018-04-12T20:31:48.641Z,56.32
2018-04-12T20:34:17.728Z,55.73
2018-04-12T20:36:46.051Z,56.36
2018-04-12T20:39:14.407Z,56.30
2018-04-12T20:41:43.551Z,55.63
2018-04-12T20:44:12.262Z,55.10
2018-04-12T20:46:40.613Z,55.59
2018-04-12T20:49:10.075Z,56.25
2018-04-12T20:51:39.250Z,56.29
2018-04-12T20:54:07.579Z,56.89
2018-04-12T20:56:36.735Z,56.76
2018-04-12T20:59:05.111Z,56.73
2018-04-12T21:01:33.503Z,57.20
2018-04-12T21:04:01.866Z,57.97
2018-04-12T21:06:30.207Z,58.21
2018-04-12T21:08:58.568Z,58.24
2018-04-12T21:11:26.931Z,57.80
2018-04-12T21:13:55.280Z,57.44
2018-04-12T21:16:23.638Z,57.36
2018-04-12T21:18:52.190Z,56.95
2018-04-12T21:21:20.531Z,56.98
2018-04-12T21:23:49.695Z,57.13
2018-04-12T21:26:18.054Z,57.23
2018-04-12T21:28:46.369Z,56.94
2018-04-12T21:31:14.721Z,57.22
2018-04-12T21:33:43.044Z,56.88
2018-04-12T21:36:12.171Z,57.00
2018-04-12T21:38:40.478Z,57.06
2018-04-12T21:41:08.855Z,57.17
2018-04-12T21:43:37.195Z,57.42
2018-04-12T21:46:05.551Z,57.73
2018-04-12T21:48:33.916Z,57.42
2018-04-12T21:51:03.023Z,57.32
2018-04-12T21:53:31.370Z,57.94
2018-04-12T21:55:59.696Z,57.89
2018-04-12T21:58:28.061Z,58.20
2018-04-12T22:00:56.396Z,58.48
2018-04-12T22:03:24.764Z,58.20
2018-04-12T22:05:53.104Z,58.01
2018-04-12T22:08:22.217Z,57.87
2018-04-12T22:10:50.545Z,58.05
2018-04-12T22:13:19.675Z,57.87
2018-04-12T22:15:48.046Z,58.18
2018-04-12T22:18:16.358Z,58.39
2018-04-12T22:20:44.704Z,58.29
2018-04-12T22:23:13.046Z,58.45
2018-04-12T22:25:42.174Z,58.28
2018-04-12T22:28:10.510Z,58.10
2018-04-12T22:30:38.872Z,58.16
2018-04-12T22:33:07.198Z,58.38
2018-04-12T22:35:35.513Z,58.75
2018-04-12T22:38:03.871Z,59.24
2018-04-12T22:40:32.195Z,59.14
2018-04-12T22:43:00.548Z,59.49
2018-04-12T22:45:28.875Z,59.48
2018-04-12T22:47:57.978Z,59.51
2018-04-12T22:50:26.299Z,59.72
2018-04-12T22:52:54.633Z,59.74
2018-04-12T22:55:22.971Z,59.36
2018-04-12T22:57:51.309Z,59.65
2018-04-12T23:00:19.637Z,59.86
2018-04-12T23:02:47.991Z,60.01
2018-04-12T23:05:16.316Z,59.70
2018-04-12T23:07:45.444Z,59.74
2018-04-12T23:10:13.768Z,59.36
2018-04-12T23:12:42.151Z,58.55
2018-04-12T23:15:11.261Z,58.21
2018-04-12T23:17:40.359Z,57.81
2018-04-12T23:20:08.711Z,57.13
2018-04-12T23:22:37.833Z,57.39
2018-04-12T23:25:06.173Z,57.90
2018-04-12T23:27:34.486Z,57.81
2018-04-12T23:30:03.611Z,57.96
2018-04-12T23:32:32.713Z,58.06
2018-04-12T23:35:01.037Z,58.13
2018-04-12T23:37:30.186Z,57.96
2018-04-12T23:39:58.522Z,57.75
2018-04-12T23:42:27.614Z,57.95
2018-04-12T23:44:56.741Z,58.64
2018-04-12T23:47:25.048Z,58.65
2018-04-12T23:49:53.364Z,58.87
2018-04-12T23:52:22.495Z,58.80
2018-04-12T23:54:50.854Z,58.90
2018-04-12T23:57:19.191Z,59.21
2018-04-12T23:59:47.536Z,59.45
